sensor_id;sensor_type;location;lat;lon;timestamp;P1;durP1;ratioP1;P2;durP2;ratioP2
50249;SDS011;36133;42.522;27.456;2022-08-30T00:02:11;30.38;;;7.82;;
50249;SDS011;36133;42.522;27.456;2022-08-30T00:04:36;46.92;;;8.43;;
50249;SDS011;36133;42.522;27.456;2022-08-30T00:07:02;49.70;;;9.10;;
50249;SDS011;36133;42.522;27.456;2022-08-30T00:09:27;49.33;;;9.25;;
50249;SDS011;36133;42.522;27.456;2022-08-30T00:11:55;31.05;;;8.20;;
50249;SDS011;36133;42.522;27.456;2022-08-30T00:14:20;34.72;;;8.85;;
50249;SDS011;36133;42.522;27.456;2022-08-30T00:16:46;44.53;;;9.15;;
50249;SDS011;36133;42.522;27.456;2022-08-30T00:19:11;35.22;;;7.63;;
50249;SDS011;36133;42.522;27.456;2022-08-30T00:21:37;33.25;;;9.38;;
50249;SDS011;36133;42.522;27.456;2022-08-30T00:24:05;38.00;;;8.63;;
50249;SDS011;36133;42.522;27.456;2022-08-30T00:26:31;31.20;;;8.57;;
50249;SDS011;36133;42.522;27.456;2022-08-30T00:28:56;31.08;;;7.95;;
50249;SDS011;36133;42.522;27.456;2022-08-30T00:31:22;39.55;;;9.10;;
50249;SDS011;36133;42.522;27.456;2022-08-30T00:33:48;37.95;;;8.73;;
50249;SDS011;36133;42.522;27.456;2022-08-30T00:36:14;41.03;;;8.85;;
50249;SDS011;36133;42.522;27.456;2022-08-30T00:38:40;46.78;;;9.02;;
50249;SDS011;36133;42.522;27.456;2022-08-30T00:41:05;40.30;;;8.50;;
50249;SDS011;36133;42.522;27.456;2022-08-30T00:43:31;48.88;;;8.75;;
50249;SDS011;36133;42.522;27.456;2022-08-30T00:45:59;37.58;;;8.05;;
50249;SDS011;36133;42.522;27.456;2022-08-30T00:48:28;47.65;;;8.10;;
50249;SDS011;36133;42.522;27.456;2022-08-30T00:50:56;49.72;;;9.15;;
50249;SDS011;36133;42.522;27.456;2022-08-30T00:53:28;51.28;;;8.77;;
50249;SDS011;36133;42.522;27.456;2022-08-30T00:55:58;40.25;;;7.90;;
50249;SDS011;36133;42.522;27.456;2022-08-30T00:58:30;34.40;;;7.22;;
50249;SDS011;36133;42.522;27.456;2022-08-30T01:01:00;45.30;;;8.10;;
50249;SDS011;36133;42.522;27.456;2022-08-30T01:03:27;40.35;;;8.32;;
50249;SDS011;36133;42.522;27.456;2022-08-30T01:05:54;53.10;;;8.43;;
50249;SDS011;36133;42.522;27.456;2022-08-30T01:08:20;47.00;;;8.15;;
50249;SDS011;36133;42.522;27.456;2022-08-30T01:10:46;40.88;;;8.05;;
50249;SDS011;36133;42.522;27.456;2022-08-30T01:13:14;51.67;;;7.95;;
50249;SDS011;36133;42.522;27.456;2022-08-30T01:15:40;44.90;;;8.15;;
50249;SDS011;36133;42.522;27.456;2022-08-30T01:18:08;37.97;;;8.00;;
50249;SDS011;36133;42.522;27.456;2022-08-30T01:20:40;37.97;;;6.95;;
50249;SDS011;36133;42.522;27.456;2022-08-30T01:23:14;43.92;;;7.85;;
50249;SDS011;36133;42.522;27.456;2022-08-30T01:25:42;35.47;;;7.97;;
50249;SDS011;36133;42.522;27.456;2022-08-30T01:28:13;47.92;;;7.85;;
50249;SDS011;36133;42.522;27.456;2022-08-30T01:30:43;47.70;;;8.00;;
50249;SDS011;36133;42.522;27.456;2022-08-30T01:33:09;41.22;;;8.32;;
50249;SDS011;36133;42.522;27.456;2022-08-30T01:35:44;40.90;;;8.48;;
50249;SDS011;36133;42.522;27.456;2022-08-30T01:38:13;42.58;;;8.05;;
50249;SDS011;36133;42.522;27.456;2022-08-30T01:40:42;45.35;;;7.88;;
50249;SDS011;36133;42.522;27.456;2022-08-30T01:43:09;45.25;;;8.57;;
50249;SDS011;36133;42.522;27.456;2022-08-30T01:45:36;50.35;;;8.88;;
50249;SDS011;36133;42.522;27.456;2022-08-30T01:48:02;45.22;;;8.40;;
50249;SDS011;36133;42.522;27.456;2022-08-30T01:50:27;48.97;;;8.70;;
50249;SDS011;36133;42.522;27.456;2022-08-30T01:52:53;52.75;;;7.97;;
50249;SDS011;36133;42.522;27.456;2022-08-30T01:55:19;46.80;;;8.98;;
50249;SDS011;36133;42.522;27.456;2022-08-30T01:57:44;37.72;;;7.88;;
50249;SDS011;36133;42.522;27.456;2022-08-30T02:00:11;37.28;;;9.02;;
50249;SDS011;36133;42.522;27.456;2022-08-30T02:02:37;39.22;;;8.10;;
50249;SDS011;36133;42.522;27.456;2022-08-30T02:05:03;50.03;;;9.73;;
50249;SDS011;36133;42.522;27.456;2022-08-30T02:07:30;45.70;;;9.32;;
50249;SDS011;36133;42.522;27.456;2022-08-30T02:09:56;42.63;;;8.75;;
50249;SDS011;36133;42.522;27.456;2022-08-30T02:12:21;42.13;;;8.23;;
50249;SDS011;36133;42.522;27.456;2022-08-30T02:14:47;44.10;;;8.32;;
50249;SDS011;36133;42.522;27.456;2022-08-30T02:17:13;45.03;;;8.18;;
50249;SDS011;36133;42.522;27.456;2022-08-30T02:19:40;43.80;;;7.80;;
50249;SDS011;36133;42.522;27.456;2022-08-30T02:22:06;46.17;;;8.07;;
50249;SDS011;36133;42.522;27.456;2022-08-30T02:24:32;37.15;;;7.45;;
50249;SDS011;36133;42.522;27.456;2022-08-30T02:26:58;47.72;;;8.15;;
50249;SDS011;36133;42.522;27.456;2022-08-30T02:29:24;43.03;;;7.55;;
50249;SDS011;36133;42.522;27.456;2022-08-30T02:31:54;52.63;;;8.65;;
50249;SDS011;36133;42.522;27.456;2022-08-30T02:34:20;50.80;;;8.07;;
50249;SDS011;36133;42.522;27.456;2022-08-30T02:36:45;40.67;;;7.78;;
50249;SDS011;36133;42.522;27.456;2022-08-30T02:39:11;50.63;;;7.97;;
50249;SDS011;36133;42.522;27.456;2022-08-30T02:41:38;54.13;;;8.57;;
50249;SDS011;36133;42.522;27.456;2022-08-30T02:44:04;38.25;;;7.95;;
50249;SDS011;36133;42.522;27.456;2022-08-30T02:46:30;51.83;;;7.95;;
50249;SDS011;36133;42.522;27.456;2022-08-30T02:48:56;51.08;;;8.13;;
50249;SDS011;36133;42.522;27.456;2022-08-30T02:51:21;44.47;;;8.57;;
50249;SDS011;36133;42.522;27.456;2022-08-30T02:53:47;46.80;;;7.47;;
50249;SDS011;36133;42.522;27.456;2022-08-30T02:56:14;33.45;;;7.80;;
50249;SDS011;36133;42.522;27.456;2022-08-30T02:58:40;49.63;;;8.82;;
50249;SDS011;36133;42.522;27.456;2022-08-30T03:01:07;44.95;;;8.38;;
50249;SDS011;36133;42.522;27.456;2022-08-30T03:03:33;44.60;;;7.30;;
50249;SDS011;36133;42.522;27.456;2022-08-30T03:05:59;47.13;;;8.32;;
50249;SDS011;36133;42.522;27.456;2022-08-30T03:08:27;45.08;;;8.07;;
50249;SDS011;36133;42.522;27.456;2022-08-30T03:10:53;41.63;;;8.25;;
50249;SDS011;36133;42.522;27.456;2022-08-30T03:13:20;38.30;;;7.68;;
50249;SDS011;36133;42.522;27.456;2022-08-30T03:15:46;41.60;;;7.88;;
50249;SDS011;36133;42.522;27.456;2022-08-30T03:18:14;40.17;;;8.02;;
50249;SDS011;36133;42.522;27.456;2022-08-30T03:20:40;47.70;;;8.15;;
50249;SDS011;36133;42.522;27.456;2022-08-30T03:23:06;44.15;;;8.23;;
50249;SDS011;36133;42.522;27.456;2022-08-30T03:25:32;46.08;;;9.48;;
50249;SDS011;36133;42.522;27.456;2022-08-30T03:27:58;37.92;;;7.70;;
50249;SDS011;36133;42.522;27.456;2022-08-30T03:30:24;42.30;;;8.75;;
50249;SDS011;36133;42.522;27.456;2022-08-30T03:32:50;37.13;;;8.85;;
50249;SDS011;36133;42.522;27.456;2022-08-30T03:35:15;49.03;;;8.73;;
50249;SDS011;36133;42.522;27.456;2022-08-30T03:37:42;42.78;;;8.95;;
50249;SDS011;36133;42.522;27.456;2022-08-30T03:40:09;41.25;;;8.25;;
50249;SDS011;36133;42.522;27.456;2022-08-30T03:42:35;40.42;;;9.02;;
50249;SDS011;36133;42.522;27.456;2022-08-30T03:45:02;32.75;;;8.85;;
50249;SDS011;36133;42.522;27.456;2022-08-30T03:47:29;34.50;;;8.02;;
50249;SDS011;36133;42.522;27.456;2022-08-30T03:49:55;38.03;;;9.30;;
50249;SDS011;36133;42.522;27.456;2022-08-30T03:52:21;42.47;;;8.60;;
50249;SDS011;36133;42.522;27.456;2022-08-30T03:54:46;39.35;;;8.85;;
50249;SDS011;36133;42.522;27.456;2022-08-30T03:57:12;39.95;;;8.80;;
50249;SDS011;36133;42.522;27.456;2022-08-30T03:59:38;38.47;;;8.70;;
50249;SDS011;36133;42.522;27.456;2022-08-30T04:02:04;48.13;;;7.78;;
50249;SDS011;36133;42.522;27.456;2022-08-30T04:04:29;38.05;;;8.20;;
50249;SDS011;36133;42.522;27.456;2022-08-30T04:06:55;38.50;;;8.05;;
50249;SDS011;36133;42.522;27.456;2022-08-30T04:09:21;34.55;;;8.82;;
50249;SDS011;36133;42.522;27.456;2022-08-30T04:11:48;50.75;;;10.30;;
50249;SDS011;36133;42.522;27.456;2022-08-30T04:14:13;45.50;;;8.77;;
50249;SDS011;36133;42.522;27.456;2022-08-30T04:16:39;45.47;;;9.10;;
50249;SDS011;36133;42.522;27.456;2022-08-30T04:19:08;53.60;;;8.38;;
50249;SDS011;36133;42.522;27.456;2022-08-30T04:21:33;44.35;;;8.98;;
50249;SDS011;36133;42.522;27.456;2022-08-30T04:24:00;52.05;;;9.25;;
50249;SDS011;36133;42.522;27.456;2022-08-30T04:26:25;35.25;;;8.60;;
50249;SDS011;36133;42.522;27.456;2022-08-30T04:28:52;49.78;;;9.43;;
50249;SDS011;36133;42.522;27.456;2022-08-30T04:31:18;40.08;;;9.52;;
50249;SDS011;36133;42.522;27.456;2022-08-30T04:33:44;46.40;;;9.13;;
50249;SDS011;36133;42.522;27.456;2022-08-30T04:36:10;55.58;;;9.27;;
50249;SDS011;36133;42.522;27.456;2022-08-30T04:38:37;43.15;;;9.10;;
50249;SDS011;36133;42.522;27.456;2022-08-30T04:41:11;45.20;;;9.55;;
50249;SDS011;36133;42.522;27.456;2022-08-30T04:43:40;46.85;;;8.38;;
50249;SDS011;36133;42.522;27.456;2022-08-30T04:46:07;45.00;;;7.78;;
50249;SDS011;36133;42.522;27.456;2022-08-30T04:48:35;46.92;;;7.93;;
50249;SDS011;36133;42.522;27.456;2022-08-30T04:51:11;33.13;;;7.68;;
50249;SDS011;36133;42.522;27.456;2022-08-30T04:53:39;38.15;;;8.18;;
50249;SDS011;36133;42.522;27.456;2022-08-30T04:56:06;42.88;;;8.15;;
50249;SDS011;36133;42.522;27.456;2022-08-30T04:58:33;48.83;;;9.32;;
50249;SDS011;36133;42.522;27.456;2022-08-30T05:00:58;42.83;;;7.88;;
50249;SDS011;36133;42.522;27.456;2022-08-30T05:03:24;41.45;;;7.95;;
50249;SDS011;36133;42.522;27.456;2022-08-30T05:05:50;40.13;;;8.75;;
50249;SDS011;36133;42.522;27.456;2022-08-30T05:08:16;61.78;;;9.25;;
50249;SDS011;36133;42.522;27.456;2022-08-30T05:10:48;44.00;;;7.78;;
50249;SDS011;36133;42.522;27.456;2022-08-30T05:13:16;50.00;;;9.18;;
50249;SDS011;36133;42.522;27.456;2022-08-30T05:15:45;48.55;;;8.65;;
50249;SDS011;36133;42.522;27.456;2022-08-30T05:18:11;49.72;;;9.15;;
50249;SDS011;36133;42.522;27.456;2022-08-30T05:20:39;59.53;;;9.55;;
50249;SDS011;36133;42.522;27.456;2022-08-30T05:23:05;53.47;;;8.55;;
50249;SDS011;36133;42.522;27.456;2022-08-30T05:25:33;45.22;;;9.20;;
50249;SDS011;36133;42.522;27.456;2022-08-30T05:28:02;45.10;;;8.85;;
50249;SDS011;36133;42.522;27.456;2022-08-30T05:30:30;42.80;;;9.70;;
50249;SDS011;36133;42.522;27.456;2022-08-30T05:32:57;45.78;;;9.52;;
50249;SDS011;36133;42.522;27.456;2022-08-30T05:35:23;52.90;;;8.95;;
50249;SDS011;36133;42.522;27.456;2022-08-30T05:37:49;42.03;;;8.88;;
50249;SDS011;36133;42.522;27.456;2022-08-30T05:40:15;39.95;;;8.25;;
50249;SDS011;36133;42.522;27.456;2022-08-30T05:42:44;37.55;;;8.38;;
50249;SDS011;36133;42.522;27.456;2022-08-30T05:45:11;40.17;;;8.38;;
50249;SDS011;36133;42.522;27.456;2022-08-30T05:47:37;45.30;;;8.38;;
50249;SDS011;36133;42.522;27.456;2022-08-30T05:50:04;42.85;;;7.82;;
50249;SDS011;36133;42.522;27.456;2022-08-30T05:52:37;38.20;;;8.50;;
50249;SDS011;36133;42.522;27.456;2022-08-30T05:55:05;40.55;;;9.40;;
50249;SDS011;36133;42.522;27.456;2022-08-30T05:57:32;40.15;;;10.07;;
50249;SDS011;36133;42.522;27.456;2022-08-30T05:59:59;55.83;;;11.30;;
50249;SDS011;36133;42.522;27.456;2022-08-30T06:02:26;50.58;;;9.60;;
50249;SDS011;36133;42.522;27.456;2022-08-30T06:04:51;45.13;;;10.23;;
50249;SDS011;36133;42.522;27.456;2022-08-30T06:07:17;58.67;;;10.32;;
50249;SDS011;36133;42.522;27.456;2022-08-30T06:09:42;48.85;;;8.63;;
50249;SDS011;36133;42.522;27.456;2022-08-30T06:12:08;54.40;;;7.97;;
50249;SDS011;36133;42.522;27.456;2022-08-30T06:14:34;48.30;;;9.18;;
50249;SDS011;36133;42.522;27.456;2022-08-30T06:17:02;46.92;;;9.23;;
50249;SDS011;36133;42.522;27.456;2022-08-30T06:19:28;63.83;;;9.60;;
50249;SDS011;36133;42.522;27.456;2022-08-30T06:21:53;46.38;;;10.20;;
50249;SDS011;36133;42.522;27.456;2022-08-30T06:24:19;49.80;;;8.82;;
50249;SDS011;36133;42.522;27.456;2022-08-30T06:26:45;42.83;;;10.10;;
50249;SDS011;36133;42.522;27.456;2022-08-30T06:29:14;57.50;;;10.48;;
50249;SDS011;36133;42.522;27.456;2022-08-30T06:31:42;51.33;;;10.30;;
50249;SDS011;36133;42.522;27.456;2022-08-30T06:34:09;56.42;;;9.38;;
50249;SDS011;36133;42.522;27.456;2022-08-30T06:36:35;52.95;;;9.23;;
50249;SDS011;36133;42.522;27.456;2022-08-30T06:39:03;39.97;;;8.07;;
50249;SDS011;36133;42.522;27.456;2022-08-30T06:41:30;47.72;;;8.70;;
50249;SDS011;36133;42.522;27.456;2022-08-30T06:43:59;45.67;;;8.57;;
50249;SDS011;36133;42.522;27.456;2022-08-30T06:46:29;45.97;;;8.30;;
50249;SDS011;36133;42.522;27.456;2022-08-30T06:48:57;43.63;;;9.43;;
50249;SDS011;36133;42.522;27.456;2022-08-30T06:51:25;52.28;;;9.30;;
50249;SDS011;36133;42.522;27.456;2022-08-30T06:53:52;46.35;;;8.82;;
50249;SDS011;36133;42.522;27.456;2022-08-30T06:56:19;48.88;;;8.73;;
50249;SDS011;36133;42.522;27.456;2022-08-30T06:58:47;53.72;;;8.90;;
50249;SDS011;36133;42.522;27.456;2022-08-30T07:01:13;40.95;;;8.40;;
50249;SDS011;36133;42.522;27.456;2022-08-30T07:03:42;53.25;;;8.45;;
50249;SDS011;36133;42.522;27.456;2022-08-30T07:06:08;46.45;;;8.25;;
50249;SDS011;36133;42.522;27.456;2022-08-30T07:08:35;49.80;;;9.07;;
50249;SDS011;36133;42.522;27.456;2022-08-30T07:11:01;43.47;;;8.10;;
50249;SDS011;36133;42.522;27.456;2022-08-30T07:13:29;35.75;;;7.68;;
50249;SDS011;36133;42.522;27.456;2022-08-30T07:15:55;38.55;;;7.70;;
50249;SDS011;36133;42.522;27.456;2022-08-30T07:18:21;40.25;;;7.50;;
50249;SDS011;36133;42.522;27.456;2022-08-30T07:21:13;47.97;;;8.00;;
50249;SDS011;36133;42.522;27.456;2022-08-30T07:23:41;49.70;;;7.10;;
50249;SDS011;36133;42.522;27.456;2022-08-30T07:26:13;35.00;;;7.40;;
50249;SDS011;36133;42.522;27.456;2022-08-30T07:28:41;36.22;;;7.57;;
50249;SDS011;36133;42.522;27.456;2022-08-30T07:31:11;40.97;;;7.65;;
50249;SDS011;36133;42.522;27.456;2022-08-30T07:33:39;46.10;;;7.70;;
50249;SDS011;36133;42.522;27.456;2022-08-30T07:36:05;39.25;;;7.40;;
50249;SDS011;36133;42.522;27.456;2022-08-30T07:38:32;50.50;;;8.15;;
50249;SDS011;36133;42.522;27.456;2022-08-30T07:40:57;46.65;;;7.97;;
50249;SDS011;36133;42.522;27.456;2022-08-30T07:43:30;34.25;;;7.75;;
50249;SDS011;36133;42.522;27.456;2022-08-30T07:46:04;43.53;;;8.40;;
50249;SDS011;36133;42.522;27.456;2022-08-30T07:48:34;36.90;;;8.20;;
50249;SDS011;36133;42.522;27.456;2022-08-30T07:51:00;45.85;;;7.97;;
50249;SDS011;36133;42.522;27.456;2022-08-30T07:53:32;45.10;;;8.23;;
50249;SDS011;36133;42.522;27.456;2022-08-30T07:56:05;40.95;;;7.75;;
50249;SDS011;36133;42.522;27.456;2022-08-30T07:58:35;48.15;;;7.05;;
50249;SDS011;36133;42.522;27.456;2022-08-30T08:01:02;39.20;;;6.72;;
50249;SDS011;36133;42.522;27.456;2022-08-30T08:03:30;35.78;;;5.63;;
50249;SDS011;36133;42.522;27.456;2022-08-30T08:06:00;35.53;;;6.53;;
50249;SDS011;36133;42.522;27.456;2022-08-30T08:08:29;26.40;;;5.60;;
50249;SDS011;36133;42.522;27.456;2022-08-30T08:10:55;34.95;;;7.13;;
50249;SDS011;36133;42.522;27.456;2022-08-30T08:13:21;29.45;;;6.03;;
50249;SDS011;36133;42.522;27.456;2022-08-30T08:15:49;31.75;;;6.43;;
50249;SDS011;36133;42.522;27.456;2022-08-30T08:18:14;37.15;;;7.05;;
50249;SDS011;36133;42.522;27.456;2022-08-30T08:20:43;33.55;;;7.32;;
50249;SDS011;36133;42.522;27.456;2022-08-30T08:23:09;33.53;;;6.40;;
50249;SDS011;36133;42.522;27.456;2022-08-30T08:25:38;27.30;;;5.78;;
50249;SDS011;36133;42.522;27.456;2022-08-30T08:28:05;30.05;;;6.38;;
50249;SDS011;36133;42.522;27.456;2022-08-30T08:30:32;40.67;;;6.32;;
50249;SDS011;36133;42.522;27.456;2022-08-30T08:32:58;36.35;;;6.50;;
50249;SDS011;36133;42.522;27.456;2022-08-30T08:35:24;37.58;;;6.47;;
50249;SDS011;36133;42.522;27.456;2022-08-30T08:37:50;35.13;;;5.85;;
50249;SDS011;36133;42.522;27.456;2022-08-30T08:43:35;19.92;;;5.53;;
50249;SDS011;36133;42.522;27.456;2022-08-30T08:46:07;27.33;;;6.05;;
50249;SDS011;36133;42.522;27.456;2022-08-30T08:51:10;39.20;;;5.93;;
50249;SDS011;36133;42.522;27.456;2022-08-30T08:54:01;38.45;;;6.95;;
50249;SDS011;36133;42.522;27.456;2022-08-30T08:56:32;34.15;;;6.22;;
50249;SDS011;36133;42.522;27.456;2022-08-30T08:58:58;30.10;;;5.95;;
50249;SDS011;36133;42.522;27.456;2022-08-30T09:01:25;27.60;;;6.68;;
50249;SDS011;36133;42.522;27.456;2022-08-30T09:03:54;40.40;;;6.85;;
50249;SDS011;36133;42.522;27.456;2022-08-30T09:06:23;34.05;;;5.95;;
50249;SDS011;36133;42.522;27.456;2022-08-30T09:08:52;35.83;;;6.10;;
50249;SDS011;36133;42.522;27.456;2022-08-30T09:11:23;28.83;;;6.25;;
50249;SDS011;36133;42.522;27.456;2022-08-30T09:13:51;34.42;;;6.35;;
50249;SDS011;36133;42.522;27.456;2022-08-30T09:27:42;30.50;;;5.78;;
50249;SDS011;36133;42.522;27.456;2022-08-30T09:30:17;36.40;;;6.15;;
50249;SDS011;36133;42.522;27.456;2022-08-30T09:35:35;42.65;;;7.05;;
50249;SDS011;36133;42.522;27.456;2022-08-30T09:38:22;35.65;;;6.90;;
50249;SDS011;36133;42.522;27.456;2022-08-30T09:40:53;34.45;;;6.15;;
50249;SDS011;36133;42.522;27.456;2022-08-30T09:43:24;33.50;;;5.60;;
50249;SDS011;36133;42.522;27.456;2022-08-30T09:48:30;42.50;;;5.93;;
50249;SDS011;36133;42.522;27.456;2022-08-30T10:04:50;35.42;;;6.22;;
50249;SDS011;36133;42.522;27.456;2022-08-30T10:07:31;28.77;;;5.57;;
50249;SDS011;36133;42.522;27.456;2022-08-30T10:11:07;39.30;;;6.50;;
50249;SDS011;36133;42.522;27.456;2022-08-30T10:22:34;26.30;;;5.50;;
50249;SDS011;36133;42.522;27.456;2022-08-30T10:30:12;31.73;;;5.97;;
50249;SDS011;36133;42.522;27.456;2022-08-30T10:35:35;21.63;;;5.38;;
50249;SDS011;36133;42.522;27.456;2022-08-30T10:38:07;32.40;;;5.50;;
50249;SDS011;36133;42.522;27.456;2022-08-30T10:40:38;28.63;;;5.68;;
50249;SDS011;36133;42.522;27.456;2022-08-30T10:43:36;30.83;;;5.57;;
50249;SDS011;36133;42.522;27.456;2022-08-30T10:49:17;24.63;;;5.43;;
50249;SDS011;36133;42.522;27.456;2022-08-30T10:54:33;27.40;;;5.35;;
50249;SDS011;36133;42.522;27.456;2022-08-30T10:57:08;31.60;;;5.20;;
50249;SDS011;36133;42.522;27.456;2022-08-30T10:59:33;29.17;;;5.10;;
50249;SDS011;36133;42.522;27.456;2022-08-30T11:05:02;25.15;;;5.60;;
50249;SDS011;36133;42.522;27.456;2022-08-30T11:07:36;28.25;;;5.28;;
50249;SDS011;36133;42.522;27.456;2022-08-30T11:13:00;32.50;;;5.25;;
50249;SDS011;36133;42.522;27.456;2022-08-30T11:15:31;26.25;;;5.22;;
50249;SDS011;36133;42.522;27.456;2022-08-30T11:25:53;30.00;;;5.63;;
50249;SDS011;36133;42.522;27.456;2022-08-30T11:42:08;26.90;;;5.82;;
50249;SDS011;36133;42.522;27.456;2022-08-30T11:44:30;31.48;;;5.60;;
50249;SDS011;36133;42.522;27.456;2022-08-30T11:47:00;16.35;;;5.07;;
50249;SDS011;36133;42.522;27.456;2022-08-30T11:50:00;23.15;;;5.00;;
50249;SDS011;36133;42.522;27.456;2022-08-30T11:52:39;26.38;;;5.45;;
50249;SDS011;36133;42.522;27.456;2022-08-30T12:01:12;28.08;;;6.18;;
50249;SDS011;36133;42.522;27.456;2022-08-30T12:03:55;51.60;;;6.78;;
50249;SDS011;36133;42.522;27.456;2022-08-30T12:20:16;30.40;;;6.07;;
50249;SDS011;36133;42.522;27.456;2022-08-30T12:22:55;27.85;;;5.78;;
50249;SDS011;36133;42.522;27.456;2022-08-30T12:25:29;25.95;;;6.53;;
50249;SDS011;36133;42.522;27.456;2022-08-30T12:30:45;29.15;;;5.53;;
50249;SDS011;36133;42.522;27.456;2022-08-30T12:33:15;26.42;;;6.03;;
50249;SDS011;36133;42.522;27.456;2022-08-30T12:36:01;31.80;;;6.80;;
50249;SDS011;36133;42.522;27.456;2022-08-30T12:38:27;27.10;;;5.43;;
50249;SDS011;36133;42.522;27.456;2022-08-30T12:40:58;28.88;;;6.13;;
50249;SDS011;36133;42.522;27.456;2022-08-30T12:43:36;22.55;;;6.45;;
50249;SDS011;36133;42.522;27.456;2022-08-30T12:46:14;22.35;;;6.03;;
50249;SDS011;36133;42.522;27.456;2022-08-30T12:48:45;29.95;;;6.05;;
50249;SDS011;36133;42.522;27.456;2022-08-30T12:54:15;21.88;;;6.03;;
50249;SDS011;36133;42.522;27.456;2022-08-30T12:56:56;26.45;;;5.97;;
50249;SDS011;36133;42.522;27.456;2022-08-30T13:02:17;22.88;;;5.30;;
50249;SDS011;36133;42.522;27.456;2022-08-30T13:04:43;26.48;;;5.95;;
50249;SDS011;36133;42.522;27.456;2022-08-30T13:07:23;33.50;;;5.75;;
50249;SDS011;36133;42.522;27.456;2022-08-30T13:10:13;31.90;;;6.18;;
50249;SDS011;36133;42.522;27.456;2022-08-30T13:15:30;27.67;;;5.60;;
50249;SDS011;36133;42.522;27.456;2022-08-30T13:20:43;27.15;;;6.97;;
50249;SDS011;36133;42.522;27.456;2022-08-30T13:23:10;21.98;;;5.22;;
50249;SDS011;36133;42.522;27.456;2022-08-30T13:25:36;25.38;;;5.15;;
50249;SDS011;36133;42.522;27.456;2022-08-30T13:28:04;27.92;;;5.80;;
50249;SDS011;36133;42.522;27.456;2022-08-30T13:30:31;37.25;;;6.60;;
50249;SDS011;36133;42.522;27.456;2022-08-30T13:32:57;20.10;;;4.78;;
50249;SDS011;36133;42.522;27.456;2022-08-30T13:35:25;23.98;;;5.53;;
50249;SDS011;36133;42.522;27.456;2022-08-30T13:37:51;24.50;;;5.80;;
50249;SDS011;36133;42.522;27.456;2022-08-30T13:40:20;20.67;;;5.60;;
50249;SDS011;36133;42.522;27.456;2022-08-30T13:42:46;23.75;;;5.28;;
50249;SDS011;36133;42.522;27.456;2022-08-30T13:45:13;21.50;;;5.13;;
50249;SDS011;36133;42.522;27.456;2022-08-30T13:47:40;29.35;;;5.10;;
50249;SDS011;36133;42.522;27.456;2022-08-30T13:50:08;25.48;;;5.40;;
50249;SDS011;36133;42.522;27.456;2022-08-30T13:52:34;24.75;;;6.90;;
50249;SDS011;36133;42.522;27.456;2022-08-30T13:55:06;16.52;;;5.32;;
50249;SDS011;36133;42.522;27.456;2022-08-30T13:57:32;35.75;;;6.20;;
50249;SDS011;36133;42.522;27.456;2022-08-30T14:00:02;23.08;;;5.15;;
50249;SDS011;36133;42.522;27.456;2022-08-30T14:02:41;26.38;;;5.63;;
50249;SDS011;36133;42.522;27.456;2022-08-30T14:05:09;25.48;;;5.43;;
50249;SDS011;36133;42.522;27.456;2022-08-30T14:07:47;19.10;;;5.85;;
50249;SDS011;36133;42.522;27.456;2022-08-30T14:10:19;26.92;;;5.97;;
50249;SDS011;36133;42.522;27.456;2022-08-30T14:12:46;28.55;;;5.72;;
50249;SDS011;36133;42.522;27.456;2022-08-30T14:15:11;21.58;;;4.97;;
50249;SDS011;36133;42.522;27.456;2022-08-30T14:17:37;21.88;;;5.63;;
50249;SDS011;36133;42.522;27.456;2022-08-30T14:20:03;23.17;;;6.65;;
50249;SDS011;36133;42.522;27.456;2022-08-30T14:22:29;32.00;;;5.90;;
50249;SDS011;36133;42.522;27.456;2022-08-30T14:24:55;25.40;;;5.68;;
50249;SDS011;36133;42.522;27.456;2022-08-30T14:27:20;19.77;;;5.63;;
50249;SDS011;36133;42.522;27.456;2022-08-30T14:29:49;18.60;;;5.40;;
50249;SDS011;36133;42.522;27.456;2022-08-30T14:32:14;21.15;;;4.85;;
50249;SDS011;36133;42.522;27.456;2022-08-30T14:34:40;18.00;;;5.30;;
50249;SDS011;36133;42.522;27.456;2022-08-30T14:37:06;19.80;;;5.47;;
50249;SDS011;36133;42.522;27.456;2022-08-30T14:39:32;20.73;;;5.20;;
50249;SDS011;36133;42.522;27.456;2022-08-30T14:41:57;17.60;;;5.18;;
50249;SDS011;36133;42.522;27.456;2022-08-30T14:44:23;26.15;;;6.22;;
50249;SDS011;36133;42.522;27.456;2022-08-30T14:46:50;29.33;;;6.50;;
50249;SDS011;36133;42.522;27.456;2022-08-30T14:49:16;28.67;;;5.53;;
50249;SDS011;36133;42.522;27.456;2022-08-30T14:51:42;21.75;;;4.97;;
50249;SDS011;36133;42.522;27.456;2022-08-30T14:54:12;28.92;;;6.07;;
50249;SDS011;36133;42.522;27.456;2022-08-30T14:56:44;23.48;;;5.63;;
50249;SDS011;36133;42.522;27.456;2022-08-30T14:59:10;24.42;;;5.88;;
50249;SDS011;36133;42.522;27.456;2022-08-30T15:01:36;31.45;;;5.63;;
50249;SDS011;36133;42.522;27.456;2022-08-30T15:04:03;32.58;;;6.53;;
50249;SDS011;36133;42.522;27.456;2022-08-30T15:06:30;28.73;;;6.18;;
50249;SDS011;36133;42.522;27.456;2022-08-30T15:08:59;34.80;;;6.65;;
50249;SDS011;36133;42.522;27.456;2022-08-30T15:11:25;22.58;;;5.57;;
50249;SDS011;36133;42.522;27.456;2022-08-30T15:13:51;31.92;;;5.90;;
50249;SDS011;36133;42.522;27.456;2022-08-30T15:16:24;27.90;;;6.47;;
50249;SDS011;36133;42.522;27.456;2022-08-30T15:18:52;25.38;;;5.90;;
50249;SDS011;36133;42.522;27.456;2022-08-30T15:21:26;29.77;;;6.07;;
50249;SDS011;36133;42.522;27.456;2022-08-30T15:23:54;30.98;;;7.30;;
50249;SDS011;36133;42.522;27.456;2022-08-30T15:26:21;37.25;;;8.57;;
50249;SDS011;36133;42.522;27.456;2022-08-30T15:28:47;28.42;;;6.93;;
50249;SDS011;36133;42.522;27.456;2022-08-30T15:31:13;33.38;;;7.35;;
50249;SDS011;36133;42.522;27.456;2022-08-30T15:33:42;35.30;;;6.75;;
50249;SDS011;36133;42.522;27.456;2022-08-30T15:36:07;33.75;;;7.78;;
50249;SDS011;36133;42.522;27.456;2022-08-30T15:38:33;31.88;;;7.47;;
50249;SDS011;36133;42.522;27.456;2022-08-30T15:41:05;32.42;;;7.90;;
50249;SDS011;36133;42.522;27.456;2022-08-30T15:43:36;25.90;;;7.40;;
50249;SDS011;36133;42.522;27.456;2022-08-30T15:46:21;47.47;;;8.23;;
50249;SDS011;36133;42.522;27.456;2022-08-30T15:48:50;35.70;;;8.30;;
50249;SDS011;36133;42.522;27.456;2022-08-30T15:51:19;28.58;;;7.35;;
50249;SDS011;36133;42.522;27.456;2022-08-30T15:53:46;27.95;;;7.43;;
50249;SDS011;36133;42.522;27.456;2022-08-30T15:56:15;36.17;;;9.15;;
50249;SDS011;36133;42.522;27.456;2022-08-30T15:58:44;37.03;;;8.73;;
50249;SDS011;36133;42.522;27.456;2022-08-30T16:01:11;34.83;;;8.10;;
50249;SDS011;36133;42.522;27.456;2022-08-30T16:03:37;30.75;;;8.25;;
50249;SDS011;36133;42.522;27.456;2022-08-30T16:06:16;33.28;;;8.90;;
50249;SDS011;36133;42.522;27.456;2022-08-30T16:08:44;32.75;;;8.82;;
50249;SDS011;36133;42.522;27.456;2022-08-30T16:11:11;31.58;;;8.25;;
50249;SDS011;36133;42.522;27.456;2022-08-30T16:13:50;34.08;;;8.88;;
50249;SDS011;36133;42.522;27.456;2022-08-30T16:16:20;30.55;;;8.20;;
50249;SDS011;36133;42.522;27.456;2022-08-30T16:18:47;28.48;;;8.25;;
50249;SDS011;36133;42.522;27.456;2022-08-30T16:21:19;33.40;;;8.90;;
50249;SDS011;36133;42.522;27.456;2022-08-30T16:23:47;33.58;;;8.38;;
50249;SDS011;36133;42.522;27.456;2022-08-30T16:26:15;27.13;;;8.00;;
50249;SDS011;36133;42.522;27.456;2022-08-30T16:28:42;37.50;;;8.38;;
50249;SDS011;36133;42.522;27.456;2022-08-30T16:31:09;25.27;;;8.48;;